Time;durP1;ratioP1;P1;durP2;ratioP2;P2;SDS_P1;SDS_P2;PMS_P1;PMS_P2;Temp;Humidity;BMP_temperature;BMP_pressure;BME280_temperature;BME280_humidity;BME280_pressure;Samples;Min_cycle;Max_cycle;Signal;HPM_P1;HPM_P2
2021/06/16 00:00:42;;;;;;;1.10;1.00;;;;;;;18.23;73.80;99223.80;1765363;78;21406;-57
2021/06/16 00:03:08;;;;;;;1.35;1.25;;;;;;;18.23;73.73;99221.58;1764323;78;21418;-58
2021/06/16 00:05:34;;;;;;;3.37;1.32;;;;;;;18.23;73.72;99228.39;1763337;78;20927;-58
2021/06/16 00:08:01;;;;;;;3.67;1.50;;;;;;;18.22;73.69;99230.73;1765250;78;21004;-57
2021/06/16 00:10:30;;;;;;;3.75;1.20;;;;;;;18.21;73.66;99232.60;1761545;78;20895;-57
2021/06/16 00:12:58;;;;;;;3.83;1.00;;;;;;;18.19;73.67;99229.17;1762660;78;20971;-57
2021/06/16 00:15:28;;;;;;;1.60;1.50;;;;;;;18.17;73.69;99237.11;1762749;78;21062;-57
2021/06/16 00:17:54;;;;;;;1.45;1.35;;;;;;;18.14;73.77;99246.40;1764968;78;21030;-58
2021/06/16 00:20:21;;;;;;;2.85;1.15;;;;;;;18.11;73.81;99232.57;1759925;78;21034;-59
2021/06/16 00:22:47;;;;;;;2.15;1.17;;;;;;;18.12;73.88;99227.45;1757607;78;21555;-60
2021/06/16 00:25:14;;;;;;;2.40;1.37;;;;;;;18.15;73.85;99229.06;1759745;78;21410;-59
2021/06/16 00:27:40;;;;;;;1.57;1.47;;;;;;;18.17;73.78;99235.74;1761829;78;21066;-60
2021/06/16 00:30:10;;;;;;;3.27;1.40;;;;;;;18.15;73.77;99235.38;1755563;78;21133;-57
2021/06/16 00:32:37;;;;;;;1.90;1.45;;;;;;;18.12;73.79;99238.36;1763026;78;21109;-58
2021/06/16 00:35:04;;;;;;;1.50;1.40;;;;;;;18.12;73.82;99233.41;1761581;78;20999;-57
2021/06/16 00:37:33;;;;;;;1.22;1.12;;;;;;;18.09;73.91;99229.11;1764715;78;20975;-57
2021/06/16 00:40:02;;;;;;;2.05;1.20;;;;;;;18.07;74.01;99224.78;1759315;78;21066;-60
2021/06/16 00:42:29;;;;;;;1.90;1.55;;;;;;;18.05;74.07;99230.36;1759080;78;21532;-57
2021/06/16 00:44:55;;;;;;;1.82;1.50;;;;;;;18.05;74.11;99229.50;1760595;78;21134;-58
2021/06/16 00:47:22;;;;;;;2.60;1.65;;;;;;;18.06;74.17;99235.31;1762357;78;21172;-58
2021/06/16 00:49:48;;;;;;;4.12;2.17;;;;;;;18.06;74.15;99239.39;1759820;78;21473;-56
2021/06/16 00:53:08;;;;;;;3.05;1.57;;;;;;;18.08;74.27;99243.72;1790478;78;29241;-58
2021/06/16 00:55:38;;;;;;;2.58;1.10;;;;;;;18.03;74.36;99252.77;1762496;79;21005;-59
2021/06/16 00:58:08;;;;;;;1.60;1.50;;;;;;;18.03;74.41;99256.02;1766765;79;22205;-59
2021/06/16 01:00:44;;;;;;;2.15;1.30;;;;;;;18.02;74.49;99251.56;1766850;79;21009;-59
2021/06/16 01:03:14;;;;;;;2.37;1.10;;;;;;;17.99;74.59;99245.02;1739259;80;20991;-58
2021/06/16 01:05:47;;;;;;;1.40;1.30;;;;;;;17.96;74.63;99247.50;1753525;79;22744;-59
2021/06/16 01:08:18;;;;;;;1.70;1.60;;;;;;;17.92;74.76;99248.77;1762132;79;21081;-57
2021/06/16 01:10:46;;;;;;;3.50;1.98;;;;;;;17.88;74.89;99243.21;1766122;79;21329;-59
2021/06/16 01:13:28;;;;;;;1.87;1.42;;;;;;;17.85;75.02;99239.41;1760806;79;22346;-58
2021/06/16 01:16:10;;;;;;;1.42;1.32;;;;;;;17.83;75.04;99234.59;1764804;79;21044;-59
2021/06/16 01:18:46;;;;;;;3.17;1.20;;;;;;;17.81;74.95;99228.91;1765917;79;21366;-59
2021/06/16 01:21:13;;;;;;;1.75;1.57;;;;;;;17.79;74.93;99229.03;1768899;79;21307;-57
2021/06/16 01:24:08;;;;;;;2.70;1.62;;;;;;;17.76;75.04;99234.76;1768573;79;21180;-57
2021/06/16 01:26:40;;;;;;;3.12;1.42;;;;;;;17.73;75.26;99245.41;1764817;79;21072;-56
2021/06/16 01:29:19;;;;;;;2.25;2.12;;;;;;;17.73;75.45;99251.34;1764041;79;21004;-56
2021/06/16 01:31:46;;;;;;;4.45;2.65;;;;;;;17.72;75.48;99255.92;1765310;79;21043;-59
2021/06/16 01:34:13;;;;;;;3.80;2.30;;;;;;;17.71;75.51;99261.48;1762170;79;21094;-59
2021/06/16 01:36:44;;;;;;;4.10;3.02;;;;;;;17.71;75.59;99268.30;1762875;79;23020;-56
2021/06/16 01:39:11;;;;;;;2.50;2.37;;;;;;;17.69;75.66;99260.78;1769492;80;20951;-58
2021/06/16 01:41:38;;;;;;;2.42;1.98;;;;;;;17.68;75.77;99268.08;1766971;79;21008;-57
2021/06/16 01:44:05;;;;;;;2.50;2.30;;;;;;;17.68;75.86;99271.30;1769365;79;21431;-57
2021/06/16 01:46:31;;;;;;;3.22;2.05;;;;;;;17.67;75.99;99270.43;1768559;79;21080;-57
2021/06/16 01:48:58;;;;;;;2.27;2.08;;;;;;;17.68;76.21;99272.66;1766018;79;21116;-57
2021/06/16 01:51:25;;;;;;;1.60;1.50;;;;;;;17.69;76.35;99276.58;1764086;80;21187;-58
2021/06/16 01:53:51;;;;;;;2.60;2.37;;;;;;;17.69;76.42;99278.47;1724091;82;21492;-58
2021/06/16 01:56:18;;;;;;;2.83;2.62;;;;;;;17.71;76.56;99284.63;1703628;83;21061;-59
2021/06/16 01:58:47;;;;;;;2.95;2.77;;;;;;;17.71;76.62;99281.91;1699655;83;21380;-58
2021/06/16 02:01:15;;;;;;;3.55;3.05;;;;;;;17.71;76.82;99284.13;1699516;83;21788;-58
2021/06/16 02:03:42;;;;;;;2.85;2.58;;;;;;;17.70;76.96;99283.76;1698070;83;21057;-58
2021/06/16 02:06:09;;;;;;;2.85;2.33;;;;;;;17.70;76.98;99282.89;1697978;83;21136;-58
2021/06/16 02:08:36;;;;;;;5.10;3.22;;;;;;;17.70;77.09;99293.78;1702921;82;21062;-58
2021/06/16 02:11:03;;;;;;;11.60;3.75;;;;;;;17.70;77.25;99297.37;1725592;82;21073;-59
2021/06/16 02:13:41;;;;;;;3.40;2.55;;;;;;;17.71;77.32;99290.94;1694926;82;22331;-59
2021/06/16 02:16:14;;;;;;;5.17;2.53;;;;;;;17.75;77.44;99288.83;1698588;83;21223;-58
2021/06/16 02:18:46;;;;;;;3.72;2.67;;;;;;;17.81;77.47;99285.58;1700336;83;22408;-59
2021/06/16 02:21:13;;;;;;;2.37;2.23;;;;;;;17.86;77.38;99282.48;1703090;82;21102;-58
2021/06/16 02:23:41;;;;;;;3.17;2.87;;;;;;;17.85;77.32;99288.42;1726669;82;21100;-58
2021/06/16 02:26:08;;;;;;;2.95;2.72;;;;;;;17.84;77.28;99292.63;1727639;82;21752;-59
2021/06/16 02:28:34;;;;;;;5.95;2.35;;;;;;;17.85;77.29;99291.64;1725861;82;21140;-59
2021/06/16 02:31:01;;;;;;;2.83;2.60;;;;;;;17.86;77.31;99294.23;1724952;82;21167;-56
2021/06/16 02:33:27;;;;;;;3.45;2.20;;;;;;;17.88;77.37;99292.72;1700812;83;21082;-59
2021/06/16 02:35:54;;;;;;;2.98;2.22;;;;;;;17.90;77.50;99292.96;1697091;83;21120;-57
2021/06/16 02:38:22;;;;;;;7.83;2.52;;;;;;;17.94;77.60;99298.52;1696803;83;21176;-59
2021/06/16 02:40:49;;;;;;;2.92;2.25;;;;;;;17.99;77.43;99305.79;1721106;82;21579;-59
2021/06/16 02:43:15;;;;;;;2.67;2.52;;;;;;;18.00;77.42;99308.88;1723139;82;21046;-56
2021/06/16 02:45:42;;;;;;;4.72;3.75;;;;;;;18.04;77.43;99298.08;1700176;83;21077;-59
2021/06/16 02:48:08;;;;;;;3.22;2.83;;;;;;;18.06;77.29;99304.76;1696523;83;21129;-59
2021/06/16 02:50:36;;;;;;;3.47;3.17;;;;;;;18.06;77.21;99297.95;1699956;83;21148;-59
2021/06/16 02:53:16;;;;;;;2.75;2.40;;;;;;;18.07;77.15;99293.73;1689376;83;20884;-57
2021/06/16 02:55:43;;;;;;;8.10;2.35;;;;;;;18.09;77.14;99294.48;1681797;83;20940;-58
2021/06/16 02:58:10;;;;;;;2.52;2.33;;;;;;;18.11;77.10;99292.49;1708945;83;21478;-58
2021/06/16 03:00:36;;;;;;;2.15;1.95;;;;;;;18.14;77.05;99289.48;1708919;81;20953;-59
2021/06/16 03:03:03;;;;;;;5.12;2.40;;;;;;;18.16;77.03;99289.36;1684684;84;21918;-57
2021/06/16 03:05:30;;;;;;;2.67;2.52;;;;;;;18.17;76.99;99292.95;1688856;84;20900;-57
2021/06/16 03:07:58;;;;;;;3.30;2.70;;;;;;;18.17;77.04;99294.30;1707482;83;20920;-57
2021/06/16 03:10:26;;;;;;;4.62;3.77;;;;;;;18.18;76.96;99296.03;1703102;83;21156;-58
2021/06/16 03:12:53;;;;;;;3.83;3.62;;;;;;;18.17;76.94;99295.67;1704755;83;20966;-57
2021/06/16 03:15:20;;;;;;;3.17;2.98;;;;;;;18.17;76.86;99296.53;1679746;83;21101;-58
2021/06/16 03:17:47;;;;;;;3.10;2.90;;;;;;;18.22;76.76;99294.76;1708306;83;20899;-58
2021/06/16 03:20:17;;;;;;;4.90;2.22;;;;;;;18.26;76.73;99293.02;1704478;83;20974;-57
2021/06/16 03:22:44;;;;;;;2.90;2.72;;;;;;;18.31;76.71;99288.51;1682715;83;20958;-56
2021/06/16 03:25:11;;;;;;;3.90;2.58;;;;;;;18.34;76.67;99286.39;1706356;83;21446;-57
2021/06/16 03:27:38;;;;;;;3.83;2.52;;;;;;;18.39;76.76;99284.12;1708638;81;21101;-56
2021/06/16 03:30:07;;;;;;;3.02;2.77;;;;;;;18.45;76.81;99289.55;1689119;83;20895;-59
2021/06/16 03:32:33;;;;;;;3.52;3.37;;;;;;;18.49;76.76;99291.86;1707274;83;21248;-59
2021/06/16 03:34:59;;;;;;;3.05;2.92;;;;;;;18.51;76.81;99289.00;1679597;83;21358;-57
2021/06/16 03:37:26;;;;;;;3.42;3.10;;;;;;;18.56;76.61;99294.89;1684912;83;21053;-58
2021/06/16 03:39:54;;;;;;;3.58;3.37;;;;;;;18.64;76.51;99295.61;1683923;83;21563;-58
2021/06/16 03:42:21;;;;;;;4.42;3.27;;;;;;;18.71;76.41;99295.46;1709104;83;21243;-58
2021/06/16 03:44:48;;;;;;;2.87;2.67;;;;;;;18.76;76.17;99300.85;1710435;81;20966;-57
2021/06/16 03:47:18;;;;;;;3.10;2.80;;;;;;;18.82;75.98;99303.03;1701969;83;21818;-57
2021/06/16 03:49:44;;;;;;;4.75;3.77;;;;;;;18.86;76.03;99304.49;1674534;83;21141;-58
2021/06/16 03:52:12;;;;;;;4.60;4.30;;;;;;;18.90;76.08;99306.42;1699120;83;22176;-57
2021/06/16 03:54:38;;;;;;;3.67;3.35;;;;;;;18.93;75.88;99311.62;1686608;84;21372;-58
2021/06/16 03:57:07;;;;;;;4.10;3.22;;;;;;;18.97;75.67;99312.22;1685905;84;21091;-59
2021/06/16 03:59:35;;;;;;;7.58;4.08;;;;;;;19.02;75.60;99312.16;1688685;84;21105;-58
2021/06/16 04:02:02;;;;;;;5.70;3.15;;;;;;;19.06;75.55;99316.32;1687656;84;21475;-58
2021/06/16 04:04:28;;;;;;;5.90;3.05;;;;;;;19.11;75.57;99318.16;1685669;83;21132;-59
2021/06/16 04:06:55;;;;;;;3.70;3.17;;;;;;;19.15;75.44;99324.17;1672977;84;21069;-57
2021/06/16 04:09:21;;;;;;;3.87;3.58;;;;;;;19.19;75.32;99321.55;1683814;84;21128;-59
2021/06/16 04:11:47;;;;;;;4.90;3.65;;;;;;;19.24;75.17;99315.16;1685746;83;21057;-58
2021/06/16 04:14:14;;;;;;;4.12;3.85;;;;;;;19.28;75.12;99320.22;1674536;84;21184;-56
2021/06/16 04:16:42;;;;;;;4.17;3.98;;;;;;;19.32;75.08;99320.78;1653818;84;22412;-59
2021/06/16 04:19:08;;;;;;;4.37;4.03;;;;;;;19.37;74.97;99328.57;1656832;84;21044;-56
2021/06/16 04:21:35;;;;;;;7.60;3.55;;;;;;;19.41;74.85;99331.36;1673173;84;21077;-56
2021/06/16 04:24:02;;;;;;;3.17;2.70;;;;;;;19.42;74.77;99324.91;1687275;83;21056;-58
2021/06/16 04:26:29;;;;;;;5.10;3.12;;;;;;;19.44;74.73;99326.50;1672597;84;21531;-58
2021/06/16 04:28:55;;;;;;;4.40;2.95;;;;;;;19.45;74.62;99322.77;1656222;84;21124;-58
2021/06/16 04:31:21;;;;;;;3.87;3.58;;;;;;;19.49;74.54;99326.09;1683765;83;21131;-59
2021/06/16 04:33:47;;;;;;;3.50;3.25;;;;;;;19.52;74.52;99324.46;1674332;84;22004;-59
2021/06/16 04:36:14;;;;;;;5.37;5.05;;;;;;;19.55;74.46;99320.10;1655964;84;21048;-59
2021/06/16 04:38:40;;;;;;;8.43;4.75;;;;;;;19.57;74.37;99320.30;1671153;84;21824;-59
2021/06/16 04:41:07;;;;;;;4.72;4.15;;;;;;;19.59;74.25;99319.66;1683422;82;21550;-58
2021/06/16 04:43:33;;;;;;;3.40;3.08;;;;;;;19.65;74.28;99326.41;1672517;84;21117;-56
2021/06/16 04:45:59;;;;;;;3.87;3.40;;;;;;;19.70;74.30;99334.20;1686808;83;21046;-57
2021/06/16 04:48:26;;;;;;;4.28;2.62;;;;;;;19.74;74.32;99330.16;1672908;84;21120;-56
2021/06/16 04:50:52;;;;;;;4.47;3.77;;;;;;;19.77;74.29;99332.62;1654123;84;21106;-58
2021/06/16 04:53:18;;;;;;;4.15;3.47;;;;;;;19.83;74.08;99335.63;1692299;82;21073;-56
2021/06/16 04:55:45;;;;;;;5.87;4.03;;;;;;;19.86;74.07;99335.86;1688940;83;21048;-59
2021/06/16 04:58:11;;;;;;;6.15;4.35;;;;;;;19.92;73.83;99339.38;1675877;83;21156;-59
2021/06/16 05:00:37;;;;;;;5.25;4.95;;;;;;;19.95;73.56;99326.31;1703957;82;21097;-57
2021/06/16 05:03:04;;;;;;;7.47;5.75;;;;;;;19.98;72.95;99326.53;1672474;85;21160;-57
2021/06/16 05:05:30;;;;;;;5.37;4.87;;;;;;;19.99;72.95;99320.03;1686694;84;22149;-59
2021/06/16 05:07:57;;;;;;;6.97;4.85;;;;;;;20.01;72.51;99326.23;1690333;84;21025;-57
2021/06/16 05:10:23;;;;;;;6.92;6.33;;;;;;;20.03;72.46;99330.55;1687271;84;22308;-59
2021/06/16 05:12:49;;;;;;;6.03;5.37;;;;;;;20.10;72.26;99332.20;1690107;84;21681;-58
2021/06/16 05:15:16;;;;;;;8.35;4.65;;;;;;;20.19;71.65;99333.20;1689656;82;21180;-59
2021/06/16 05:17:45;;;;;;;4.03;2.15;;;;;;;20.31;71.00;99340.25;1654857;83;21564;-58
2021/06/16 05:20:12;;;;;;;1.95;1.80;;;;;;;20.44;69.72;99344.06;1689675;84;21109;-59
2021/06/16 05:22:39;;;;;;;3.47;2.33;;;;;;;20.53;69.16;99334.98;1690896;83;22102;-58
2021/06/16 05:25:08;;;;;;;2.35;2.15;;;;;;;20.65;68.77;99332.45;1686166;84;20969;-58
2021/06/16 05:27:34;;;;;;;6.42;1.70;;;;;;;20.75;68.02;99336.89;1691115;84;20961;-58
2021/06/16 05:30:02;;;;;;;3.85;1.35;;;;;;;20.82;67.07;99342.62;1689422;84;21126;-56
2021/06/16 05:32:29;;;;;;;8.33;2.10;;;;;;;20.88;66.60;99342.02;1690685;84;20875;-58
2021/06/16 05:34:56;;;;;;;2.25;2.05;;;;;;;20.93;65.88;99343.79;1686890;84;21029;-57
2021/06/16 05:37:23;;;;;;;3.85;1.80;;;;;;;21.00;65.92;99349.05;1691482;84;20930;-59
2021/06/16 05:39:49;;;;;;;5.60;1.77;;;;;;;21.08;65.95;99353.27;1690160;84;20982;-60
2021/06/16 05:42:16;;;;;;;1.30;1.20;;;;;;;21.15;65.29;99353.02;1688190;84;21724;-59
2021/06/16 05:44:42;;;;;;;1.87;1.77;;;;;;;21.24;64.28;99361.36;1685997;83;21125;-60
2021/06/16 05:47:09;;;;;;;2.40;1.67;;;;;;;21.27;64.79;99360.53;1684048;84;21132;-57
2021/06/16 05:49:35;;;;;;;2.37;2.12;;;;;;;21.35;65.06;99357.07;1693566;84;21095;-59
2021/06/16 05:52:02;;;;;;;4.75;1.70;;;;;;;21.42;64.97;99357.67;1686949;84;22321;-61
2021/06/16 05:54:28;;;;;;;2.05;1.30;;;;;;;21.51;64.69;99352.66;1703613;83;21108;-60
2021/06/16 06:00:00;;;;;;;3.72;1.12;;;;;;;21.71;63.91;99356.12;1777716;78;28125;-55
2021/06/16 06:02:26;;;;;;;1.50;1.40;;;;;;;21.70;63.46;99359.87;1737326;80;21061;-54
2021/06/16 06:04:52;;;;;;;1.55;1.30;;;;;;;21.74;63.44;99364.03;1738134;80;21336;-57
2021/06/16 06:07:20;;;;;;;4.10;1.60;;;;;;;21.74;62.98;99364.03;1738775;80;20966;-57
2021/06/16 06:09:47;;;;;;;4.50;1.80;;;;;;;21.76;63.20;99363.38;1741311;80;21191;-56
2021/06/16 06:12:13;;;;;;;2.55;1.40;;;;;;;21.79;63.39;99365.80;1738476;79;21641;-57
2021/06/16 06:14:40;;;;;;;4.12;1.82;;;;;;;21.80;63.29;99364.78;1744071;80;21523;-58
2021/06/16 06:17:06;;;;;;;3.25;1.25;;;;;;;21.80;63.08;99364.78;1744540;80;21142;-58
2021/06/16 06:19:33;;;;;;;2.05;1.30;;;;;;;21.81;63.21;99368.39;1734887;80;20915;-59
2021/06/16 06:22:00;;;;;;;3.33;1.75;;;;;;;21.84;63.43;99366.21;1740529;80;21001;-56
2021/06/16 06:24:26;;;;;;;4.03;1.55;;;;;;;21.89;63.19;99363.86;1740096;80;21046;-57
2021/06/16 06:26:52;;;;;;;3.45;1.47;;;;;;;21.97;63.53;99364.95;1739703;80;21334;-55
2021/06/16 06:29:18;;;;;;;1.20;1.10;;;;;;;22.06;62.95;99359.44;1736707;80;21546;-57
2021/06/16 06:31:45;;;;;;;2.12;1.15;;;;;;;22.18;62.84;99362.81;1742166;80;21451;-56
2021/06/16 06:34:11;;;;;;;2.55;1.10;;;;;;;22.28;62.10;99364.97;1744501;80;21034;-57
2021/06/16 06:36:38;;;;;;;1.10;1.00;;;;;;;22.37;61.24;99365.91;1737401;80;21125;-59
2021/06/16 06:39:04;;;;;;;1.55;1.25;;;;;;;22.41;59.54;99365.41;1701383;81;21080;-57
2021/06/16 06:41:31;;;;;;;2.75;1.25;;;;;;;22.43;59.12;99371.61;1692891;82;22432;-59
2021/06/16 06:43:57;;;;;;;1.85;1.00;;;;;;;22.43;59.13;99369.37;1678138;82;21074;-54
2021/06/16 06:46:24;;;;;;;2.80;1.17;;;;;;;22.42;59.11;99370.39;1676394;82;21760;-56
2021/06/16 06:48:51;;;;;;;2.77;1.00;;;;;;;22.41;58.98;99372.27;1678457;82;21616;-57
2021/06/16 06:51:17;;;;;;;2.22;1.20;;;;;;;22.40;59.52;99377.41;1678790;82;21073;-56
2021/06/16 06:53:43;;;;;;;4.85;1.00;;;;;;;22.36;58.49;99374.64;1676717;82;22219;-54
2021/06/16 06:56:10;;;;;;;4.62;1.10;;;;;;;22.29;58.50;99371.31;1677340;82;21117;-58
2021/06/16 06:58:37;;;;;;;2.75;0.93;;;;;;;22.26;59.44;99373.85;1677409;82;21092;-55
2021/06/16 07:01:04;;;;;;;1.72;1.32;;;;;;;22.26;60.01;99371.98;1676150;83;21162;-56
2021/06/16 07:03:33;;;;;;;2.00;1.12;;;;;;;22.29;60.21;99370.78;1672109;83;21151;-58
2021/06/16 07:05:59;;;;;;;1.67;1.10;;;;;;;22.31;59.92;99373.37;1684473;83;21139;-57
2021/06/16 07:08:25;;;;;;;0.95;0.90;;;;;;;22.33;60.25;99374.08;1675308;84;20907;-56
2021/06/16 07:10:52;;;;;;;5.72;1.00;;;;;;;22.37;60.09;99370.84;1675317;83;21002;-57
2021/06/16 07:13:19;;;;;;;2.65;1.00;;;;;;;22.45;60.03;99369.58;1673186;83;21029;-56
2021/06/16 07:15:45;;;;;;;1.15;0.80;;;;;;;22.55;59.48;99379.06;1676681;83;20966;-57
2021/06/16 07:18:12;;;;;;;0.90;0.80;;;;;;;22.65;59.30;99370.23;1673919;83;21862;-57
2021/06/16 07:20:38;;;;;;;2.02;0.90;;;;;;;22.82;58.57;99377.59;1678030;83;21402;-60
2021/06/16 07:23:05;;;;;;;2.27;0.80;;;;;;;22.94;56.30;99378.20;1677462;83;21386;-58
2021/06/16 07:25:31;;;;;;;1.22;0.82;;;;;;;23.05;56.81;99374.33;1672646;83;21137;-59
2021/06/16 07:27:57;;;;;;;1.55;0.80;;;;;;;23.16;57.32;99387.25;1671538;83;21136;-58
2021/06/16 07:30:24;;;;;;;1.25;0.90;;;;;;;23.25;56.47;99382.66;1672478;83;21852;-62
2021/06/16 07:32:53;;;;;;;0.88;0.82;;;;;;;23.31;56.04;99386.98;1674475;83;21073;-56
2021/06/16 07:35:18;;;;;;;4.25;1.07;;;;;;;23.34;55.87;99385.30;1676625;83;21481;-57
2021/06/16 07:37:44;;;;;;;1.82;1.12;;;;;;;23.36;56.09;99378.27;1674686;83;21093;-57
2021/06/16 07:40:11;;;;;;;6.47;1.60;;;;;;;23.36;56.74;99387.88;1675935;83;21097;-60
2021/06/16 07:42:38;;;;;;;2.67;1.10;;;;;;;23.35;56.54;99393.88;1674530;83;21113;-60
2021/06/16 07:45:05;;;;;;;2.90;1.15;;;;;;;23.31;56.01;99388.36;1674971;83;21097;-58
2021/06/16 07:47:32;;;;;;;3.47;1.40;;;;;;;23.31;56.39;99388.36;1673406;83;20967;-57
2021/06/16 07:49:58;;;;;;;1.70;1.55;;;;;;;23.31;56.96;99389.73;1674111;83;20914;-61
2021/06/16 07:52:27;;;;;;;1.42;1.10;;;;;;;23.32;56.73;99383.22;1673250;83;21828;-59
2021/06/16 07:54:53;;;;;;;1.77;1.40;;;;;;;23.33;56.45;99393.18;1674109;83;21154;-57
2021/06/16 07:57:19;;;;;;;2.75;1.15;;;;;;;23.36;55.77;99387.88;1672759;83;21534;-57
2021/06/16 07:59:46;;;;;;;4.20;0.90;;;;;;;23.36;56.05;99387.38;1667455;83;21595;-60
2021/06/16 08:02:12;;;;;;;1.67;1.00;;;;;;;23.38;56.01;99381.72;1671060;83;21077;-60
2021/06/16 08:04:42;;;;;;;2.00;1.12;;;;;;;23.40;55.09;99388.75;1669736;83;21112;-61
2021/06/16 08:07:10;;;;;;;2.83;1.30;;;;;;;23.39;54.83;99384.82;1674915;83;21148;-57
2021/06/16 08:09:44;;;;;;;2.62;1.32;;;;;;;23.40;55.39;99386.52;1673796;83;21141;-59
2021/06/16 08:12:10;;;;;;;3.15;1.07;;;;;;;23.43;55.01;99388.94;1672395;83;21037;-58
2021/06/16 08:14:37;;;;;;;1.20;1.02;;;;;;;23.45;55.10;99395.14;1670320;83;21399;-57
2021/06/16 08:17:04;;;;;;;3.15;0.90;;;;;;;23.47;55.04;99390.86;1673486;83;21046;-60
2021/06/16 08:19:32;;;;;;;1.62;0.85;;;;;;;23.50;54.23;99391.91;1671626;83;21166;-60
2021/06/16 08:21:59;;;;;;;2.65;0.80;;;;;;;23.55;55.32;99400.55;1673452;83;21580;-60
2021/06/16 08:24:26;;;;;;;1.90;1.37;;;;;;;23.60;54.99;99402.27;1673359;83;21442;-60
2021/06/16 08:26:52;;;;;;;8.90;1.15;;;;;;;23.63;53.58;99406.94;1673804;83;21078;-58
2021/06/16 08:29:19;;;;;;;1.17;1.00;;;;;;;23.64;53.37;99400.92;1675018;83;21148;-60
2021/06/16 08:31:45;;;;;;;2.42;0.80;;;;;;;23.61;53.77;99402.11;1669747;83;22328;-60
2021/06/16 08:36:41;;;;;;;2.92;0.60;;;;;;;23.70;51.88;99403.86;1771867;78;22595;-57
2021/06/16 08:39:10;;;;;;;1.02;0.55;;;;;;;23.69;49.40;99411.76;1743847;80;21540;-59
2021/06/16 08:41:36;;;;;;;0.80;0.60;;;;;;;23.73;49.65;99407.63;1742057;80;21052;-57
2021/06/16 08:44:02;;;;;;;2.00;0.62;;;;;;;23.77;50.27;99410.92;1724825;80;21088;-58
2021/06/16 08:46:29;;;;;;;1.62;0.60;;;;;;;23.83;50.12;99403.38;1725510;80;21555;-58
2021/06/16 08:48:56;;;;;;;0.65;0.50;;;;;;;23.87;49.38;99420.41;1724346;80;21027;-58
2021/06/16 08:51:23;;;;;;;1.22;0.45;;;;;;;23.89;49.34;99421.98;1722762;80;21065;-57
2021/06/16 08:53:49;;;;;;;1.75;0.50;;;;;;;23.91;48.46;99421.27;1724214;80;21607;-58
2021/06/16 08:56:16;;;;;;;2.05;0.50;;;;;;;23.95;48.38;99417.17;1723131;80;21033;-56
2021/06/16 08:58:42;;;;;;;4.60;0.53;;;;;;;23.98;48.13;99413.24;1694228;82;21072;-55
2021/06/16 09:01:10;;;;;;;2.87;0.68;;;;;;;24.01;49.31;99417.88;1693442;82;21080;-57
2021/06/16 09:03:38;;;;;;;3.17;0.50;;;;;;;24.02;48.73;99420.97;1688670;82;20949;-56
2021/06/16 09:06:09;;;;;;;0.57;0.57;;;;;;;24.04;47.52;99420.81;1691122;82;21092;-56
2021/06/16 09:08:55;;;;;;;0.70;0.50;;;;;;;24.01;46.98;99421.13;1694090;82;21342;-57
2021/06/16 09:11:22;;;;;;;2.37;0.60;;;;;;;23.97;47.02;99421.14;1690189;82;21377;-57
2021/06/16 09:13:49;;;;;;;2.27;0.50;;;;;;;23.90;47.27;99426.96;1678415;83;20943;-59
2021/06/16 09:16:30;;;;;;;2.75;0.50;;;;;;;23.87;47.49;99429.52;1674142;83;21040;-59
2021/06/16 09:18:58;;;;;;;0.70;0.50;;;;;;;23.85;49.01;99431.56;1696002;82;21395;-58
2021/06/16 09:21:39;;;;;;;1.15;0.70;;;;;;;23.85;49.65;99437.58;1692201;82;21387;-58
2021/06/16 09:24:07;;;;;;;1.75;0.68;;;;;;;23.86;49.61;99433.80;1684187;82;21129;-56
2021/06/16 09:26:36;;;;;;;2.20;0.60;;;;;;;23.86;49.12;99432.43;1664824;83;21085;-56
2021/06/16 09:29:02;;;;;;;0.60;0.60;;;;;;;23.85;48.80;99421.95;1685829;82;21553;-56
2021/06/16 09:31:37;;;;;;;2.55;0.70;;;;;;;23.86;49.15;99425.05;1685890;82;21013;-56
2021/06/16 09:34:09;;;;;;;0.80;0.80;;;;;;;23.89;47.34;99426.09;1687267;82;21110;-55
2021/06/16 09:36:55;;;;;;;1.32;0.40;;;;;;;23.92;48.68;99424.37;1678748;82;21066;-58
2021/06/16 09:39:25;;;;;;;6.05;0.70;;;;;;;23.98;47.09;99426.98;1598369;84;21116;-57
2021/06/16 09:41:56;;;;;;;0.85;0.40;;;;;;;24.03;46.08;99417.20;1673563;83;21670;-56
2021/06/16 09:44:45;;;;;;;3.90;0.40;;;;;;;24.08;47.12;99418.05;1677136;83;22636;-57
2021/06/16 09:47:20;;;;;;;0.78;0.30;;;;;;;24.14;45.28;99426.52;1674865;83;21070;-57
2021/06/16 09:49:57;;;;;;;0.50;0.30;;;;;;;24.19;44.26;99411.38;1666344;84;21117;-57
2021/06/16 09:52:37;;;;;;;0.90;0.30;;;;;;;24.22;43.29;99417.97;1667004;83;21515;-60
2021/06/16 09:55:15;;;;;;;5.00;0.40;;;;;;;24.28;44.12;99414.02;1672086;83;21108;-59
2021/06/16 09:58:03;;;;;;;3.85;0.40;;;;;;;24.37;44.70;99406.64;1672009;83;21576;-58
2021/06/16 10:00:37;;;;;;;0.88;0.40;;;;;;;24.49;43.90;99410.80;1675649;83;20994;-57
2021/06/16 10:03:21;;;;;;;2.05;0.50;;;;;;;24.60;44.91;99409.06;1677125;83;21524;-57
2021/06/16 10:06:13;;;;;;;3.10;0.50;;;;;;;24.73;45.37;99412.17;1676734;83;21495;-58
2021/06/16 10:08:44;;;;;;;0.82;0.40;;;;;;;24.86;44.81;99415.77;1676784;83;20962;-56
2021/06/16 10:11:16;;;;;;;1.95;0.50;;;;;;;24.99;45.36;99407.88;1722158;80;22231;-58
2021/06/16 10:13:44;;;;;;;0.60;0.50;;;;;;;25.11;43.60;99408.36;1721010;80;21025;-58
2021/06/16 10:16:10;;;;;;;1.20;0.50;;;;;;;25.21;44.04;99397.50;1717928;80;21113;-59
2021/06/16 10:18:44;;;;;;;3.52;0.40;;;;;;;25.27;44.96;99411.08;1721819;80;22170;-58
2021/06/16 10:21:13;;;;;;;1.07;0.45;;;;;;;25.28;45.20;99403.67;1722925;80;21683;-58
2021/06/16 10:23:39;;;;;;;0.40;0.40;;;;;;;25.22;45.00;99404.73;1716691;80;21089;-57
2021/06/16 10:26:14;;;;;;;1.65;0.60;;;;;;;25.19;44.96;99401.45;1721693;80;21485;-58
2021/06/16 10:28:44;;;;;;;0.75;0.30;;;;;;;25.15;44.91;99395.98;1720000;80;21100;-56
2021/06/16 10:31:10;;;;;;;0.98;0.40;;;;;;;25.12;44.64;99383.41;1719846;80;20978;-55
2021/06/16 10:33:40;;;;;;;1.70;0.50;;;;;;;25.15;44.07;99390.47;1722015;80;21113;-56
2021/06/16 10:36:15;;;;;;;3.50;0.40;;;;;;;25.16;43.67;99393.05;1714207;81;21154;-58
2021/06/16 10:39:02;;;;;;;0.50;0.30;;;;;;;25.20;43.62;99388.89;1710559;81;21430;-58
2021/06/16 10:41:51;;;;;;;0.37;0.30;;;;;;;25.25;43.12;99389.25;1712570;81;21105;-59
2021/06/16 10:44:22;;;;;;;2.75;0.40;;;;;;;25.29;43.74;99393.00;1710249;81;21082;-60
2021/06/16 10:46:53;;;;;;;0.60;0.40;;;;;;;25.37;43.32;99387.47;1714262;81;21026;-58
2021/06/16 10:49:54;;;;;;;1.80;0.40;;;;;;;25.38;43.72;99382.30;1710273;81;21568;-58
2021/06/16 10:52:18;;;;;;;0.57;0.40;;;;;;;25.40;45.05;99390.74;1712165;81;21026;-57
2021/06/16 10:55:04;;;;;;;0.90;0.40;;;;;;;25.51;44.58;99393.64;1710590;81;21050;-57
2021/06/16 10:57:31;;;;;;;1.70;0.47;;;;;;;25.55;43.66;99398.60;1713719;81;21070;-58
2021/06/16 11:00:09;;;;;;;3.98;0.40;;;;;;;25.58;42.27;99398.78;1713839;81;21149;-56
2021/06/16 11:02:44;;;;;;;0.47;0.30;;;;;;;25.56;43.62;99398.95;1714543;81;21175;-62
2021/06/16 11:05:22;;;;;;;1.42;0.40;;;;;;;25.51;42.92;99397.26;1713516;81;21121;-57
2021/06/16 11:07:50;;;;;;;2.92;0.30;;;;;;;25.50;42.80;99394.67;1713911;81;21034;-60
2021/06/16 11:10:18;;;;;;;2.02;0.33;;;;;;;25.49;43.47;99395.19;1712780;81;21595;-57
2021/06/16 11:12:46;;;;;;;3.90;0.50;;;;;;;25.51;42.39;99390.89;1711304;81;21098;-56
2021/06/16 11:15:33;;;;;;;0.50;0.40;;;;;;;25.56;42.04;99397.57;1711594;81;21751;-59
2021/06/16 11:18:01;;;;;;;2.30;0.30;;;;;;;25.62;42.63;99397.40;1710041;81;20935;-58
2021/06/16 11:20:36;;;;;;;1.35;0.30;;;;;;;25.70;41.44;99390.98;1714625;81;20978;-61
2021/06/16 11:23:04;;;;;;;0.50;0.30;;;;;;;25.79;42.36;99398.19;1681551;83;20915;-56
2021/06/16 11:25:38;;;;;;;4.53;0.40;;;;;;;25.86;41.62;99394.52;1714747;81;20899;-61
2021/06/16 11:28:37;;;;;;;0.82;0.30;;;;;;;25.90;41.50;99393.14;1713232;81;21159;-57
2021/06/16 11:31:06;;;;;;;2.47;0.50;;;;;;;25.92;41.25;99395.20;1715652;81;20967;-59
2021/06/16 11:33:35;;;;;;;1.05;0.30;;;;;;;25.88;40.98;99393.83;1715675;81;21555;-56
2021/06/16 11:36:27;;;;;;;2.08;0.30;;;;;;;25.80;41.19;99397.15;1715808;81;20986;-56
2021/06/16 11:39:07;;;;;;;0.60;0.30;;;;;;;25.72;41.42;99393.05;1718886;81;20923;-56
2021/06/16 11:41:29;;;;;;;0.68;0.30;;;;;;;25.68;41.52;99391.19;1723491;80;21087;-60
2021/06/16 11:44:10;;;;;;;0.75;0.40;;;;;;;25.62;40.93;99387.75;1720843;80;20950;-58
2021/06/16 11:49:25;;;;;;;2.08;0.30;;;;;;;25.69;41.71;99380.48;1864509;75;21964;-60
2021/06/16 11:51:55;;;;;;;0.40;0.20;;;;;;;25.71;40.75;99379.79;1835586;77;21295;-56